createdAt,value
2017-10-29T00:00:19.341Z,8.10
2017-10-29T00:02:53.144Z,6.10
2017-10-29T00:05:26.957Z,7.20
2017-10-29T00:08:00.780Z,7.60
2017-10-29T00:10:34.568Z,12.33
2017-10-29T00:13:08.369Z,15.37
2017-10-29T00:15:43.105Z,14.00
2017-10-29T00:18:16.968Z,9.03
2017-10-29T00:20:52.489Z,6.00
2017-10-29T00:23:27.167Z,10.20
2017-10-29T00:26:00.995Z,4.63
2017-10-29T00:28:34.840Z,8.40
2017-10-29T00:31:09.311Z,6.03
2017-10-29T00:33:43.058Z,12.77
2017-10-29T00:36:16.820Z,10.43
2017-10-29T00:38:50.558Z,10.20
2017-10-29T00:41:24.331Z,6.03
2017-10-29T00:43:58.511Z,9.23
2017-10-29T00:46:32.220Z,7.37
2017-10-29T00:49:06.672Z,5.30
2017-10-29T00:51:41.003Z,11.03
2017-10-29T00:54:14.796Z,16.80
2017-10-29T00:56:48.579Z,10.20
2017-10-29T00:59:22.318Z,10.23
2017-10-29T01:01:56.095Z,9.60
2017-10-29T01:04:30.696Z,10.83
2017-10-29T01:07:04.995Z,11.00
2017-10-29T01:09:38.664Z,10.17
2017-10-29T01:12:12.500Z,8.10
2017-10-29T01:14:46.285Z,12.37
2017-10-29T01:17:20.173Z,10.53
2017-10-29T01:19:54.777Z,10.50
2017-10-29T01:22:29.680Z,11.10
2017-10-29T01:25:03.451Z,7.90
2017-10-29T01:27:37.181Z,10.37
2017-10-29T01:30:11.767Z,12.77
2017-10-29T01:32:45.554Z,16.93
2017-10-29T01:35:19.431Z,14.97
2017-10-29T01:37:53.285Z,10.73
2017-10-29T01:40:27.205Z,7.77
2017-10-29T01:43:01.963Z,11.27
2017-10-29T01:45:35.608Z,10.57
2017-10-29T01:48:10.213Z,12.30
2017-10-29T01:50:43.963Z,11.10
2017-10-29T01:53:18.182Z,14.90
2017-10-29T01:55:52.285Z,10.17
2017-10-29T01:58:26.074Z,6.63
2017-10-29T02:01:00.686Z,10.70
2017-10-29T02:03:35.753Z,7.80
2017-10-29T02:06:09.669Z,8.13
2017-10-29T02:08:43.795Z,9.97
2017-10-29T02:11:19.118Z,15.30
2017-10-29T02:13:54.397Z,13.40
2017-10-29T02:16:28.949Z,16.37
2017-10-29T02:19:02.796Z,9.10
2017-10-29T02:21:36.574Z,11.20
2017-10-29T02:24:10.292Z,10.07
2017-10-29T02:26:45.832Z,5.50
2017-10-29T02:29:19.558Z,12.63
2017-10-29T02:31:53.222Z,10.30
2017-10-29T02:34:27.081Z,9.73
2017-10-29T02:37:01.948Z,13.93
2017-10-29T02:39:35.776Z,16.10
2017-10-29T02:42:09.478Z,13.10
2017-10-29T02:44:44.000Z,13.03
2017-10-29T02:47:17.667Z,6.37
2017-10-29T02:49:51.527Z,16.63
2017-10-29T02:52:25.313Z,8.80
2017-10-29T02:54:59.838Z,6.53
2017-10-29T02:57:33.661Z,14.20
2017-10-29T03:00:07.474Z,13.60
2017-10-29T03:02:42.080Z,4.70
2017-10-29T03:05:16.576Z,19.40
2017-10-29T03:07:50.485Z,10.73
2017-10-29T03:10:24.350Z,16.17
2017-10-29T03:12:58.024Z,13.93
2017-10-29T03:15:31.947Z,17.80
2017-10-29T03:18:05.744Z,11.87
2017-10-29T03:20:39.488Z,14.47
2017-10-29T03:23:13.363Z,12.37
2017-10-29T03:25:48.050Z,17.83
2017-10-29T03:28:21.959Z,18.37
2017-10-29T03:30:55.787Z,21.60
2017-10-29T03:33:29.525Z,18.17
2017-10-29T03:36:03.350Z,20.67
2017-10-29T03:38:37.086Z,14.47
2017-10-29T03:41:10.924Z,16.77
2017-10-29T03:43:44.794Z,17.03
2017-10-29T03:46:18.428Z,6.07
2017-10-29T03:48:52.169Z,19.23
2017-10-29T03:51:25.933Z,21.10
2017-10-29T03:54:00.296Z,18.27
2017-10-29T03:56:34.814Z,17.70
2017-10-29T03:59:09.010Z,16.93
2017-10-29T04:01:42.694Z,12.37
2017-10-29T04:04:16.512Z,27.50
2017-10-29T04:06:50.280Z,11.77
2017-10-29T04:09:24.149Z,17.53
2017-10-29T04:11:57.949Z,27.27
2017-10-29T04:14:33.257Z,16.40
2017-10-29T04:17:07.760Z,25.20
2017-10-29T04:19:41.465Z,16.43
2017-10-29T04:22:16.163Z,26.53
2017-10-29T04:24:49.847Z,22.30
2017-10-29T04:27:24.895Z,17.07
2017-10-29T04:29:59.238Z,26.13
2017-10-29T04:32:32.954Z,22.33
2017-10-29T04:35:07.106Z,11.80
2017-10-29T04:37:40.837Z,20.60
2017-10-29T04:40:14.550Z,23.50
2017-10-29T04:42:48.358Z,19.20
2017-10-29T04:45:22.177Z,20.70
2017-10-29T04:47:55.898Z,14.10
2017-10-29T04:50:29.684Z,17.40
2017-10-29T04:53:03.379Z,21.47
2017-10-29T04:55:39.322Z,32.77
2017-10-29T04:58:13.881Z,28.03
2017-10-29T05:00:47.662Z,21.67
2017-10-29T05:03:22.262Z,27.83
2017-10-29T05:05:56.832Z,25.87
2017-10-29T05:08:30.964Z,19.97
2017-10-29T05:11:05.539Z,32.53
2017-10-29T05:13:39.167Z,28.17
2017-10-29T05:16:12.944Z,27.43
2017-10-29T05:18:46.597Z,27.30
2017-10-29T05:21:20.353Z,21.73
2017-10-29T05:23:54.267Z,19.47
2017-10-29T05:26:28.061Z,33.23
2017-10-29T05:29:02.690Z,24.53
2017-10-29T05:31:36.495Z,25.33
2017-10-29T05:34:10.198Z,29.30
2017-10-29T05:36:45.086Z,26.60
2017-10-29T05:39:18.940Z,22.43
2017-10-29T05:41:53.121Z,26.27
2017-10-29T05:44:27.712Z,32.97
2017-10-29T05:47:02.272Z,16.10
2017-10-29T05:49:37.068Z,25.13
2017-10-29T05:52:10.614Z,23.37
2017-10-29T05:54:44.350Z,26.73
2017-10-29T05:57:18.134Z,33.80
2017-10-29T05:59:52.872Z,24.53
2017-10-29T06:02:26.504Z,31.23
2017-10-29T06:05:00.503Z,30.17
2017-10-29T06:07:34.391Z,33.90
2017-10-29T06:10:08.922Z,27.50
2017-10-29T06:12:42.797Z,30.10
2017-10-29T06:15:17.442Z,18.63
2017-10-29T06:17:52.888Z,25.53
2017-10-29T06:20:26.706Z,20.83
2017-10-29T06:23:00.814Z,26.80
2017-10-29T06:25:34.860Z,24.93
2017-10-29T06:28:08.666Z,26.53
2017-10-29T06:30:42.412Z,22.30
2017-10-29T06:33:16.907Z,29.50
2017-10-29T06:35:51.368Z,25.33
2017-10-29T06:38:25.105Z,21.60
2017-10-29T06:40:58.761Z,26.00
2017-10-29T06:43:33.810Z,21.57
2017-10-29T06:46:07.593Z,15.60
2017-10-29T06:48:41.397Z,26.97
2017-10-29T06:51:15.977Z,29.13
2017-10-29T06:53:50.257Z,28.40
2017-10-29T06:56:23.962Z,27.07
2017-10-29T06:58:58.175Z,29.93
2017-10-29T07:01:32.770Z,21.87
2017-10-29T07:04:07.014Z,29.73
2017-10-29T07:06:42.081Z,31.60
2017-10-29T07:09:16.645Z,32.33
2017-10-29T07:11:50.790Z,27.40
2017-10-29T07:14:24.728Z,24.23
2017-10-29T07:16:58.566Z,45.63
2017-10-29T07:19:33.291Z,33.17
2017-10-29T07:22:07.032Z,23.97
2017-10-29T07:24:41.704Z,26.13
2017-10-29T07:27:16.206Z,27.13
2017-10-29T07:29:50.787Z,33.80
2017-10-29T07:32:24.512Z,21.10
2017-10-29T07:34:58.729Z,27.00
2017-10-29T07:37:33.031Z,33.03
2017-10-29T07:40:07.196Z,28.23
2017-10-29T07:42:41.351Z,21.43
2017-10-29T07:45:15.870Z,39.40
2017-10-29T07:47:49.681Z,19.53
2017-10-29T07:50:24.160Z,28.03
2017-10-29T07:52:57.880Z,30.77
2017-10-29T07:55:31.533Z,26.60
2017-10-29T07:58:05.351Z,27.50
2017-10-29T08:00:39.840Z,19.87
2017-10-29T08:03:14.334Z,25.63
2017-10-29T08:05:48.093Z,34.77
2017-10-29T08:08:21.672Z,28.60
2017-10-29T08:10:55.505Z,30.23
2017-10-29T08:13:29.500Z,21.23
2017-10-29T08:16:03.138Z,33.63
2017-10-29T08:18:36.993Z,27.10
2017-10-29T08:21:10.786Z,27.80
2017-10-29T08:23:44.637Z,37.77
2017-10-29T08:26:18.379Z,26.63
2017-10-29T08:28:52.830Z,33.73
2017-10-29T08:31:26.671Z,33.27
2017-10-29T08:34:00.554Z,35.67
2017-10-29T08:36:34.286Z,31.60
2017-10-29T08:39:08.873Z,22.60
2017-10-29T08:41:42.645Z,25.13
2017-10-29T08:44:16.449Z,22.40
2017-10-29T08:46:50.241Z,29.27
2017-10-29T08:49:24.176Z,30.60
2017-10-29T08:51:58.049Z,32.03
2017-10-29T08:54:33.234Z,25.80
2017-10-29T08:57:07.936Z,25.20
2017-10-29T08:59:41.691Z,30.67
2017-10-29T09:02:16.921Z,25.57
2017-10-29T09:04:50.921Z,26.23
2017-10-29T09:07:24.694Z,20.80
2017-10-29T09:09:58.551Z,15.93
2017-10-29T09:12:32.362Z,21.60
2017-10-29T09:15:06.225Z,30.63
2017-10-29T09:17:40.030Z,13.37
2017-10-29T09:20:14.125Z,15.13
2017-10-29T09:22:48.061Z,18.07
2017-10-29T09:25:21.845Z,24.33
2017-10-29T09:27:55.651Z,20.37
2017-10-29T09:30:29.510Z,13.90
2017-10-29T09:33:04.205Z,17.87
2017-10-29T09:35:38.056Z,16.03
2017-10-29T09:38:13.170Z,21.93
2017-10-29T09:40:47.066Z,18.33
2017-10-29T09:43:22.013Z,19.07
2017-10-29T09:45:56.401Z,20.00
2017-10-29T09:48:30.046Z,23.13
2017-10-29T09:51:05.064Z,13.80
2017-10-29T09:53:40.852Z,14.90
2017-10-29T09:56:14.660Z,25.20
2017-10-29T09:58:48.519Z,20.10
2017-10-29T10:01:23.534Z,17.33
2017-10-29T10:03:58.118Z,16.57
2017-10-29T10:06:32.834Z,22.40
2017-10-29T10:09:06.625Z,19.87
2017-10-29T10:11:40.480Z,20.50
2017-10-29T10:14:14.121Z,22.17
2017-10-29T10:16:48.627Z,21.03
2017-10-29T10:19:22.366Z,21.67
2017-10-29T10:21:56.948Z,23.67
2017-10-29T10:24:31.162Z,23.60
2017-10-29T10:27:05.676Z,18.80
2017-10-29T10:29:39.535Z,15.70
2017-10-29T10:32:13.353Z,19.50
2017-10-29T10:34:47.266Z,17.87
2017-10-29T10:37:21.077Z,19.87
2017-10-29T10:39:56.454Z,13.87
2017-10-29T10:42:30.124Z,16.17
2017-10-29T10:45:05.361Z,14.13
2017-10-29T10:47:38.990Z,12.40
2017-10-29T10:50:12.921Z,16.17
2017-10-29T10:52:46.559Z,10.30
2017-10-29T10:55:20.294Z,18.93
2017-10-29T10:57:54.902Z,10.83
2017-10-29T11:00:28.911Z,19.00
2017-10-29T11:03:02.764Z,15.50
2017-10-29T11:05:36.628Z,12.23
2017-10-29T11:08:11.109Z,18.00
2017-10-29T11:10:45.806Z,19.40
2017-10-29T11:13:20.370Z,16.03
2017-10-29T11:15:55.633Z,15.13
2017-10-29T11:18:29.449Z,11.50
2017-10-29T11:21:03.103Z,19.10
2017-10-29T11:23:36.772Z,22.43
2017-10-29T11:26:11.671Z,20.40
2017-10-29T11:28:46.240Z,22.13
2017-10-29T11:31:20.727Z,16.93
2017-10-29T11:33:54.437Z,20.13
2017-10-29T11:36:28.961Z,19.73
2017-10-29T11:39:03.685Z,16.13
2017-10-29T11:41:37.363Z,23.47
2017-10-29T11:44:12.291Z,18.57
2017-10-29T11:46:46.086Z,17.80
2017-10-29T11:49:19.986Z,11.83
2017-10-29T11:51:53.762Z,16.00
2017-10-29T11:54:27.560Z,22.60
2017-10-29T11:57:01.470Z,15.27
2017-10-29T11:59:36.358Z,18.80
2017-10-29T12:02:10.225Z,15.80
2017-10-29T12:04:44.947Z,17.57
2017-10-29T12:07:18.602Z,17.63
2017-10-29T12:09:52.322Z,15.73
2017-10-29T12:12:26.206Z,15.00
2017-10-29T12:15:00.024Z,14.53
2017-10-29T12:17:33.882Z,13.37
2017-10-29T12:20:07.624Z,22.63
2017-10-29T12:22:42.074Z,12.97
2017-10-29T12:25:17.021Z,14.37
2017-10-29T12:27:51.495Z,16.67
2017-10-29T12:30:27.032Z,17.73
2017-10-29T12:33:01.043Z,14.33
2017-10-29T12:35:36.080Z,23.70
2017-10-29T12:38:09.823Z,15.80
2017-10-29T12:40:43.629Z,20.90
2017-10-29T12:43:17.894Z,11.80
2017-10-29T12:45:52.455Z,22.13
2017-10-29T12:48:27.016Z,15.90
2017-10-29T12:51:00.750Z,16.30
2017-10-29T12:53:34.538Z,19.93
2017-10-29T12:56:08.518Z,13.20
2017-10-29T12:58:42.198Z,17.33
2017-10-29T13:01:17.564Z,13.00
2017-10-29T13:03:52.086Z,19.87
2017-10-29T13:06:25.975Z,17.50
2017-10-29T13:08:59.814Z,20.63
2017-10-29T13:11:34.513Z,20.50
2017-10-29T13:14:09.702Z,21.23
2017-10-29T13:16:43.414Z,9.83
2017-10-29T13:19:17.697Z,12.47
2017-10-29T13:21:52.463Z,13.00
2017-10-29T13:24:26.228Z,7.83
2017-10-29T13:27:00.027Z,10.43
2017-10-29T13:29:33.954Z,8.37
2017-10-29T13:32:07.649Z,7.33
2017-10-29T13:34:41.756Z,7.10
2017-10-29T13:37:16.422Z,10.70
2017-10-29T13:39:50.170Z,10.50
2017-10-29T13:42:24.030Z,8.33
2017-10-29T13:44:58.603Z,9.97
2017-10-29T13:47:32.789Z,10.53
2017-10-29T13:50:06.671Z,6.87
2017-10-29T13:52:41.437Z,11.90
2017-10-29T13:55:16.606Z,8.80
2017-10-29T13:57:50.891Z,8.73
2017-10-29T14:00:25.106Z,13.67
2017-10-29T14:02:59.952Z,10.03
2017-10-29T14:05:33.754Z,11.17
2017-10-29T14:08:07.906Z,6.63
2017-10-29T14:10:41.573Z,6.43
2017-10-29T14:13:16.230Z,8.27
2017-10-29T14:15:51.131Z,13.93
2017-10-29T14:18:25.618Z,7.23
2017-10-29T14:21:00.256Z,13.67
2017-10-29T14:23:34.025Z,14.50
2017-10-29T14:26:09.434Z,11.90
2017-10-29T14:28:43.905Z,7.13
2017-10-29T14:31:18.906Z,14.33
2017-10-29T14:33:52.928Z,10.93
2017-10-29T14:36:27.486Z,10.40
2017-10-29T14:39:01.281Z,6.03
2017-10-29T14:41:35.065Z,13.17
2017-10-29T14:44:08.825Z,6.60
2017-10-29T14:46:44.856Z,10.10
2017-10-29T14:49:18.621Z,9.87
2017-10-29T14:51:53.380Z,4.17
2017-10-29T14:54:27.772Z,10.70
2017-10-29T14:57:01.422Z,16.30
2017-10-29T14:59:35.975Z,12.03
2017-10-29T15:02:10.496Z,14.07
2017-10-29T15:04:44.656Z,7.73
2017-10-29T15:07:18.393Z,9.13
2017-10-29T15:09:52.194Z,13.37
2017-10-29T15:12:26.638Z,15.27
2017-10-29T15:15:00.476Z,14.77
2017-10-29T15:17:34.177Z,21.77
2017-10-29T15:20:08.721Z,14.23
2017-10-29T15:22:42.617Z,14.53
2017-10-29T15:25:16.433Z,22.93
2017-10-29T15:27:51.925Z,29.23
2017-10-29T15:30:26.225Z,12.27
2017-10-29T15:33:00.087Z,10.63
2017-10-29T15:35:34.581Z,15.83
2017-10-29T15:38:08.686Z,14.60
2017-10-29T15:40:42.404Z,12.93
2017-10-29T15:43:16.685Z,11.03
2017-10-29T15:45:50.827Z,15.90
2017-10-29T15:48:24.676Z,18.33
2017-10-29T15:50:59.806Z,11.33
2017-10-29T15:53:33.564Z,13.43
2017-10-29T15:56:07.362Z,22.23
2017-10-29T15:58:41.647Z,20.33
2017-10-29T16:01:15.762Z,19.07
2017-10-29T16:03:49.699Z,14.30
2017-10-29T16:06:24.194Z,19.63
2017-10-29T16:08:59.329Z,20.43
2017-10-29T16:11:34.263Z,15.73
2017-10-29T16:14:08.775Z,20.23
2017-10-29T16:16:43.376Z,22.77
2017-10-29T16:19:17.149Z,16.73
2017-10-29T16:21:51.053Z,19.47
2017-10-29T16:24:25.206Z,19.10
2017-10-29T16:26:58.873Z,19.47
2017-10-29T16:29:32.742Z,15.20
2017-10-29T16:32:06.962Z,13.50
2017-10-29T16:34:41.547Z,30.73
2017-10-29T16:37:15.498Z,16.40
2017-10-29T16:39:49.453Z,27.23
2017-10-29T16:42:23.178Z,21.03
2017-10-29T16:44:57.163Z,23.70
2017-10-29T16:47:31.702Z,24.53
2017-10-29T16:50:06.277Z,19.60
2017-10-29T16:52:41.095Z,21.57
2017-10-29T16:55:14.900Z,20.97
2017-10-29T16:57:48.615Z,20.20
2017-10-29T17:00:23.237Z,19.30
2017-10-29T17:02:57.753Z,19.07
2017-10-29T17:05:31.537Z,26.83
2017-10-29T17:08:05.223Z,21.87
2017-10-29T17:10:39.109Z,17.37
2017-10-29T17:13:12.785Z,24.20
2017-10-29T17:15:46.623Z,21.20
2017-10-29T17:18:20.400Z,24.50
2017-10-29T17:20:54.361Z,21.97
2017-10-29T17:23:28.114Z,17.50
2017-10-29T17:26:01.783Z,23.13
2017-10-29T17:28:35.663Z,24.37
2017-10-29T17:31:09.464Z,28.20
2017-10-29T17:33:44.806Z,19.80
2017-10-29T17:36:18.633Z,21.90
2017-10-29T17:38:52.474Z,33.77
2017-10-29T17:41:27.104Z,24.73
2017-10-29T17:44:00.852Z,30.20
2017-10-29T17:46:34.714Z,17.53
2017-10-29T17:49:09.307Z,18.87
2017-10-29T17:51:43.061Z,22.67
2017-10-29T17:54:18.109Z,19.13
2017-10-29T17:56:51.828Z,23.30
2017-10-29T17:59:26.389Z,22.57
2017-10-29T18:02:01.254Z,16.77
2017-10-29T18:04:34.885Z,20.77
2017-10-29T18:07:09.304Z,15.53
2017-10-29T18:09:43.995Z,17.70
2017-10-29T18:12:18.173Z,27.00
2017-10-29T18:14:52.812Z,22.40
2017-10-29T18:17:26.506Z,19.57
2017-10-29T18:20:01.344Z,23.70
2017-10-29T18:22:35.000Z,23.43
2017-10-29T18:25:08.993Z,22.30
2017-10-29T18:27:43.172Z,26.77
2017-10-29T18:30:16.852Z,25.93
2017-10-29T18:32:50.563Z,11.63
2017-10-29T18:35:24.505Z,23.80
2017-10-29T18:37:58.223Z,23.97
2017-10-29T18:40:32.119Z,26.27
2017-10-29T18:43:05.924Z,14.90
2017-10-29T18:45:40.101Z,18.97
2017-10-29T18:48:14.630Z,20.97
2017-10-29T18:50:49.226Z,11.80
2017-10-29T18:53:22.991Z,24.50
2017-10-29T18:55:57.295Z,20.40
2017-10-29T18:58:31.162Z,25.57
2017-10-29T19:01:05.094Z,34.27
2017-10-29T19:03:38.777Z,22.73
2017-10-29T19:06:12.642Z,29.60
2017-10-29T19:08:47.575Z,22.20
2017-10-29T19:11:23.594Z,15.83
2017-10-29T19:13:58.788Z,22.50
2017-10-29T19:16:32.705Z,23.27
2017-10-29T19:19:07.225Z,19.33
2017-10-29T19:21:41.399Z,22.77
2017-10-29T19:24:15.254Z,35.33
2017-10-29T19:26:49.894Z,20.33
2017-10-29T19:29:23.641Z,33.17
2017-10-29T19:31:57.749Z,17.90
2017-10-29T19:34:32.272Z,22.80
2017-10-29T19:37:06.048Z,21.00
2017-10-29T19:39:40.231Z,23.57
2017-10-29T19:42:14.637Z,23.50
2017-10-29T19:44:48.854Z,17.63
2017-10-29T19:47:22.493Z,17.97
2017-10-29T19:49:56.371Z,17.83
2017-10-29T19:52:30.177Z,27.97
2017-10-29T19:55:04.326Z,18.40
2017-10-29T19:57:38.237Z,24.30
2017-10-29T20:00:12.830Z,17.73
2017-10-29T20:02:47.398Z,20.73
2017-10-29T20:05:21.252Z,23.17
2017-10-29T20:07:55.917Z,22.73
2017-10-29T20:10:30.752Z,34.50
2017-10-29T20:13:05.129Z,28.77
2017-10-29T20:15:39.702Z,23.67
2017-10-29T20:18:14.517Z,17.67
2017-10-29T20:20:49.138Z,15.83
2017-10-29T20:23:23.652Z,17.90
2017-10-29T20:25:58.973Z,18.10
2017-10-29T20:28:33.180Z,26.77
2017-10-29T20:31:08.547Z,29.13
2017-10-29T20:33:42.266Z,20.30
2017-10-29T20:36:16.079Z,16.90
2017-10-29T20:38:49.822Z,13.93
2017-10-29T20:41:23.563Z,19.10
2017-10-29T20:43:57.432Z,23.27
2017-10-29T20:46:31.957Z,15.20
2017-10-29T20:49:05.888Z,13.63
2017-10-29T20:51:39.555Z,19.40
2017-10-29T20:54:13.255Z,11.43
2017-10-29T20:56:47.112Z,15.33
2017-10-29T20:59:21.367Z,9.87
2017-10-29T21:01:55.738Z,13.00
2017-10-29T21:04:30.150Z,22.90
2017-10-29T21:07:04.665Z,15.27
2017-10-29T21:09:38.433Z,12.70
2017-10-29T21:12:12.330Z,13.27
2017-10-29T21:14:46.570Z,9.67
2017-10-29T21:17:21.182Z,15.63
2017-10-29T21:19:55.041Z,21.60
2017-10-29T21:22:30.614Z,22.40
2017-10-29T21:25:04.833Z,10.00
2017-10-29T21:27:39.867Z,21.87
2017-10-29T21:30:14.566Z,16.40
2017-10-29T21:32:48.789Z,20.63
2017-10-29T21:35:22.622Z,14.47
2017-10-29T21:37:57.240Z,24.13
2017-10-29T21:40:31.306Z,41.30
2017-10-29T21:43:05.489Z,8.50
2017-10-29T21:45:40.068Z,10.40
2017-10-29T21:48:14.254Z,16.27
2017-10-29T21:50:47.994Z,18.50
2017-10-29T21:53:22.577Z,27.10
2017-10-29T21:55:57.662Z,17.53
2017-10-29T21:58:32.474Z,15.60
2017-10-29T22:01:06.349Z,17.10
2017-10-29T22:03:40.539Z,15.10
2017-10-29T22:06:14.437Z,21.63
2017-10-29T22:08:48.302Z,14.33
2017-10-29T22:11:24.485Z,11.73
2017-10-29T22:13:58.607Z,21.20
2017-10-29T22:16:33.117Z,12.50
2017-10-29T22:19:06.940Z,14.53
2017-10-29T22:21:42.114Z,25.13
2017-10-29T22:24:16.310Z,16.87
2017-10-29T22:26:50.058Z,14.23
2017-10-29T22:29:23.862Z,12.80
2017-10-29T22:31:58.537Z,14.90
2017-10-29T22:34:32.525Z,14.67
2017-10-29T22:37:06.199Z,11.27
2017-10-29T22:39:41.202Z,23.00
2017-10-29T22:42:15.865Z,25.40
2017-10-29T22:44:49.737Z,10.40
2017-10-29T22:47:23.613Z,15.43
2017-10-29T22:49:57.798Z,17.83
2017-10-29T22:52:31.671Z,19.87
2017-10-29T22:55:06.298Z,14.77
2017-10-29T22:57:40.960Z,20.13
2017-10-29T23:00:15.368Z,19.87
2017-10-29T23:02:49.130Z,16.40
2017-10-29T23:05:35.672Z,16.10
2017-10-29T23:08:12.354Z,16.43
2017-10-29T23:10:46.017Z,15.93
2017-10-29T23:13:20.687Z,15.93
2017-10-29T23:15:55.141Z,12.93
2017-10-29T23:18:29.045Z,13.93
2017-10-29T23:21:02.758Z,14.63
2017-10-29T23:23:36.576Z,11.40
2017-10-29T23:26:10.336Z,13.80
2017-10-29T23:28:44.107Z,12.37
2017-10-29T23:31:17.841Z,15.77
2017-10-29T23:33:51.691Z,10.00
2017-10-29T23:36:25.475Z,21.00
2017-10-29T23:38:59.289Z,17.30
2017-10-29T23:41:33.021Z,15.20
2017-10-29T23:44:06.642Z,16.07
2017-10-29T23:46:41.344Z,14.63
2017-10-29T23:49:15.246Z,18.03
2017-10-29T23:51:48.902Z,9.60
2017-10-29T23:54:22.573Z,19.30
2017-10-29T23:56:56.817Z,10.80
2017-10-29T23:59:30.660Z,13.30
